sensor_id;sensor_type;location;lat;lon;timestamp;temperature;humidity
19037;DHT22;9651;49.138;8.900;2023-10-31T00:02:17;12.90;99.90
19037;DHT22;9651;49.138;8.900;2023-10-31T00:06:19;12.90;99.90
19037;DHT22;9651;49.138;8.900;2023-10-31T00:10:20;12.80;99.90
19037;DHT22;9651;49.138;8.900;2023-10-31T00:14:22;12.80;99.90
19037;DHT22;9651;49.138;8.900;2023-10-31T00:18:25;12.80;99.90
19037;DHT22;9651;49.138;8.900;2023-10-31T00:22:27;12.70;99.90
19037;DHT22;9651;49.138;8.900;2023-10-31T00:26:29;12.70;99.90
19037;DHT22;9651;49.138;8.900;2023-10-31T00:30:31;12.60;99.90
19037;DHT22;9651;49.138;8.900;2023-10-31T00:34:34;12.60;99.90
19037;DHT22;9651;49.138;8.900;2023-10-31T00:38:36;12.50;99.90
19037;DHT22;9651;49.138;8.900;2023-10-31T00:42:38;12.50;99.90
19037;DHT22;9651;49.138;8.900;2023-10-31T00:46:41;12.50;99.90
19037;DHT22;9651;49.138;8.900;2023-10-31T00:50:45;12.50;99.90
19037;DHT22;9651;49.138;8.900;2023-10-31T00:54:47;12.40;99.90
19037;DHT22;9651;49.138;8.900;2023-10-31T00:58:49;12.40;99.90
19037;DHT22;9651;49.138;8.900;2023-10-31T01:02:51;12.30;99.90
19037;DHT22;9651;49.138;8.900;2023-10-31T01:06:55;12.20;99.90
19037;DHT22;9651;49.138;8.900;2023-10-31T01:10:57;12.20;99.90
19037;DHT22;9651;49.138;8.900;2023-10-31T01:14:58;12.10;99.90
19037;DHT22;9651;49.138;8.900;2023-10-31T01:19:00;12.10;99.90
19037;DHT22;9651;49.138;8.900;2023-10-31T01:23:03;12.10;99.90
19037;DHT22;9651;49.138;8.900;2023-10-31T01:27:05;12.00;99.90
19037;DHT22;9651;49.138;8.900;2023-10-31T01:31:07;12.00;99.90
19037;DHT22;9651;49.138;8.900;2023-10-31T01:35:10;11.90;99.90
19037;DHT22;9651;49.138;8.900;2023-10-31T01:39:13;11.80;99.90
19037;DHT22;9651;49.138;8.900;2023-10-31T01:43:29;11.70;99.90
19037;DHT22;9651;49.138;8.900;2023-10-31T01:47:31;11.70;99.90
19037;DHT22;9651;49.138;8.900;2023-10-31T01:51:33;11.60;99.90
19037;DHT22;9651;49.138;8.900;2023-10-31T01:55:36;11.60;99.90
19037;DHT22;9651;49.138;8.900;2023-10-31T01:59:39;11.50;99.90
19037;DHT22;9651;49.138;8.900;2023-10-31T02:03:41;11.50;99.90
19037;DHT22;9651;49.138;8.900;2023-10-31T02:07:45;11.50;99.90
19037;DHT22;9651;49.138;8.900;2023-10-31T02:11:48;11.50;99.90
19037;DHT22;9651;49.138;8.900;2023-10-31T02:15:50;11.60;99.90
19037;DHT22;9651;49.138;8.900;2023-10-31T02:19:52;11.60;99.90
19037;DHT22;9651;49.138;8.900;2023-10-31T02:23:59;11.60;99.90
19037;DHT22;9651;49.138;8.900;2023-10-31T02:28:02;11.60;99.90
19037;DHT22;9651;49.138;8.900;2023-10-31T02:32:04;11.60;99.90
19037;DHT22;9651;49.138;8.900;2023-10-31T02:36:07;11.50;99.90
19037;DHT22;9651;49.138;8.900;2023-10-31T02:40:11;11.50;99.90
19037;DHT22;9651;49.138;8.900;2023-10-31T02:44:14;11.50;99.90
19037;DHT22;9651;49.138;8.900;2023-10-31T02:48:16;11.50;99.90
19037;DHT22;9651;49.138;8.900;2023-10-31T02:52:18;11.50;99.90
19037;DHT22;9651;49.138;8.900;2023-10-31T02:56:21;11.40;99.90
19037;DHT22;9651;49.138;8.900;2023-10-31T03:00:23;11.40;99.90
19037;DHT22;9651;49.138;8.900;2023-10-31T03:04:26;11.30;99.90
19037;DHT22;9651;49.138;8.900;2023-10-31T03:08:28;11.30;99.90
19037;DHT22;9651;49.138;8.900;2023-10-31T03:12:31;11.20;99.90
19037;DHT22;9651;49.138;8.900;2023-10-31T03:16:33;11.30;99.90
19037;DHT22;9651;49.138;8.900;2023-10-31T03:20:36;11.30;99.90
19037;DHT22;9651;49.138;8.900;2023-10-31T03:24:38;11.30;99.90
19037;DHT22;9651;49.138;8.900;2023-10-31T03:28:43;11.30;99.90
19037;DHT22;9651;49.138;8.900;2023-10-31T03:32:45;11.30;99.90
19037;DHT22;9651;49.138;8.900;2023-10-31T03:36:46;11.30;99.90
19037;DHT22;9651;49.138;8.900;2023-10-31T03:40:48;11.40;99.90
19037;DHT22;9651;49.138;8.900;2023-10-31T03:44:52;11.40;99.90
19037;DHT22;9651;49.138;8.900;2023-10-31T03:48:54;11.40;99.90
19037;DHT22;9651;49.138;8.900;2023-10-31T03:52:55;11.40;99.90
19037;DHT22;9651;49.138;8.900;2023-10-31T03:56:58;11.40;99.90
19037;DHT22;9651;49.138;8.900;2023-10-31T04:01:01;11.40;99.90
19037;DHT22;9651;49.138;8.900;2023-10-31T04:05:04;11.40;99.90
19037;DHT22;9651;49.138;8.900;2023-10-31T04:09:06;11.40;99.90
19037;DHT22;9651;49.138;8.900;2023-10-31T04:13:08;11.40;99.90
19037;DHT22;9651;49.138;8.900;2023-10-31T04:17:11;11.30;99.90
19037;DHT22;9651;49.138;8.900;2023-10-31T04:21:13;11.30;99.90
19037;DHT22;9651;49.138;8.900;2023-10-31T04:25:15;11.30;99.90
19037;DHT22;9651;49.138;8.900;2023-10-31T04:29:17;11.30;99.90
19037;DHT22;9651;49.138;8.900;2023-10-31T04:33:20;11.30;99.90
19037;DHT22;9651;49.138;8.900;2023-10-31T04:37:22;11.30;99.90
19037;DHT22;9651;49.138;8.900;2023-10-31T04:41:25;11.40;99.90
19037;DHT22;9651;49.138;8.900;2023-10-31T04:45:26;11.30;99.90
19037;DHT22;9651;49.138;8.900;2023-10-31T04:49:30;11.30;99.90
19037;DHT22;9651;49.138;8.900;2023-10-31T04:53:31;11.40;99.90
19037;DHT22;9651;49.138;8.900;2023-10-31T04:57:34;11.40;99.90
19037;DHT22;9651;49.138;8.900;2023-10-31T05:01:36;11.40;99.90
19037;DHT22;9651;49.138;8.900;2023-10-31T05:05:39;11.40;99.90
19037;DHT22;9651;49.138;8.900;2023-10-31T05:09:41;11.40;99.90
19037;DHT22;9651;49.138;8.900;2023-10-31T05:13:43;11.40;99.90
19037;DHT22;9651;49.138;8.900;2023-10-31T05:17:45;11.30;99.90
19037;DHT22;9651;49.138;8.900;2023-10-31T05:21:49;11.30;99.90
19037;DHT22;9651;49.138;8.900;2023-10-31T05:25:50;11.30;99.90
19037;DHT22;9651;49.138;8.900;2023-10-31T05:29:52;11.30;99.90
19037;DHT22;9651;49.138;8.900;2023-10-31T05:33:54;11.30;99.90
19037;DHT22;9651;49.138;8.900;2023-10-31T05:37:57;11.30;99.90
19037;DHT22;9651;49.138;8.900;2023-10-31T05:41:59;11.30;99.90
19037;DHT22;9651;49.138;8.900;2023-10-31T05:46:01;11.30;99.90
19037;DHT22;9651;49.138;8.900;2023-10-31T05:50:03;11.30;99.90
19037;DHT22;9651;49.138;8.900;2023-10-31T05:54:08;11.30;99.90
19037;DHT22;9651;49.138;8.900;2023-10-31T05:58:10;11.30;99.90
19037;DHT22;9651;49.138;8.900;2023-10-31T06:02:13;11.30;99.90
19037;DHT22;9651;49.138;8.900;2023-10-31T06:06:15;11.20;99.90
19037;DHT22;9651;49.138;8.900;2023-10-31T06:10:18;11.20;99.90
19037;DHT22;9651;49.138;8.900;2023-10-31T06:14:21;11.20;99.90
19037;DHT22;9651;49.138;8.900;2023-10-31T06:18:22;11.30;99.90
19037;DHT22;9651;49.138;8.900;2023-10-31T06:22:24;11.30;99.90
19037;DHT22;9651;49.138;8.900;2023-10-31T06:26:28;11.20;99.90
19037;DHT22;9651;49.138;8.900;2023-10-31T06:30:30;11.30;99.90
19037;DHT22;9651;49.138;8.900;2023-10-31T06:34:31;11.30;99.90
19037;DHT22;9651;49.138;8.900;2023-10-31T06:38:33;11.30;99.90
19037;DHT22;9651;49.138;8.900;2023-10-31T06:42:36;11.30;99.90
19037;DHT22;9651;49.138;8.900;2023-10-31T06:46:38;11.20;99.90
19037;DHT22;9651;49.138;8.900;2023-10-31T06:50:40;11.30;99.90
19037;DHT22;9651;49.138;8.900;2023-10-31T06:54:42;11.40;99.90
19037;DHT22;9651;49.138;8.900;2023-10-31T06:58:45;11.40;99.90
19037;DHT22;9651;49.138;8.900;2023-10-31T07:02:47;11.40;99.90
19037;DHT22;9651;49.138;8.900;2023-10-31T07:06:49;11.40;99.90
19037;DHT22;9651;49.138;8.900;2023-10-31T07:10:57;11.30;99.90
19037;DHT22;9651;49.138;8.900;2023-10-31T07:15:00;11.40;99.90
19037;DHT22;9651;49.138;8.900;2023-10-31T07:19:02;11.50;99.90
19037;DHT22;9651;49.138;8.900;2023-10-31T07:23:04;11.50;99.90
19037;DHT22;9651;49.138;8.900;2023-10-31T07:27:06;11.50;99.90
19037;DHT22;9651;49.138;8.900;2023-10-31T07:31:09;11.50;99.90
19037;DHT22;9651;49.138;8.900;2023-10-31T07:35:11;11.60;99.90
19037;DHT22;9651;49.138;8.900;2023-10-31T07:39:13;11.70;99.90
19037;DHT22;9651;49.138;8.900;2023-10-31T07:43:15;11.70;99.90
19037;DHT22;9651;49.138;8.900;2023-10-31T07:47:19;11.90;99.90
19037;DHT22;9651;49.138;8.900;2023-10-31T07:51:20;11.90;99.90
19037;DHT22;9651;49.138;8.900;2023-10-31T07:55:22;12.00;99.90
19037;DHT22;9651;49.138;8.900;2023-10-31T07:59:24;12.10;99.90
19037;DHT22;9651;49.138;8.900;2023-10-31T08:03:27;12.20;99.90
19037;DHT22;9651;49.138;8.900;2023-10-31T08:07:29;12.20;99.90
19037;DHT22;9651;49.138;8.900;2023-10-31T08:11:31;12.20;99.90
19037;DHT22;9651;49.138;8.900;2023-10-31T08:15:35;12.30;99.90
19037;DHT22;9651;49.138;8.900;2023-10-31T08:19:38;12.50;99.90
19037;DHT22;9651;49.138;8.900;2023-10-31T08:23:40;12.70;99.90
19037;DHT22;9651;49.138;8.900;2023-10-31T08:27:45;12.80;99.90
19037;DHT22;9651;49.138;8.900;2023-10-31T08:31:47;12.90;99.90
19037;DHT22;9651;49.138;8.900;2023-10-31T08:35:50;12.80;99.90
19037;DHT22;9651;49.138;8.900;2023-10-31T08:39:52;12.70;99.90
19037;DHT22;9651;49.138;8.900;2023-10-31T08:43:54;12.80;99.90
19037;DHT22;9651;49.138;8.900;2023-10-31T08:47:56;13.00;99.90
19037;DHT22;9651;49.138;8.900;2023-10-31T08:51:59;13.40;99.90
19037;DHT22;9651;49.138;8.900;2023-10-31T08:56:03;13.90;99.90
19037;DHT22;9651;49.138;8.900;2023-10-31T09:00:06;14.10;99.90
19037;DHT22;9651;49.138;8.900;2023-10-31T09:04:08;14.30;99.90
19037;DHT22;9651;49.138;8.900;2023-10-31T09:08:12;14.30;99.90
19037;DHT22;9651;49.138;8.900;2023-10-31T09:12:14;14.60;99.90
19037;DHT22;9651;49.138;8.900;2023-10-31T09:16:16;14.70;99.90
19037;DHT22;9651;49.138;8.900;2023-10-31T09:20:18;14.80;99.90
19037;DHT22;9651;49.138;8.900;2023-10-31T09:24:21;15.00;99.90
19037;DHT22;9651;49.138;8.900;2023-10-31T09:28:24;15.30;99.90
19037;DHT22;9651;49.138;8.900;2023-10-31T09:32:26;15.40;99.90
19037;DHT22;9651;49.138;8.900;2023-10-31T09:36:28;15.60;99.90
19037;DHT22;9651;49.138;8.900;2023-10-31T09:40:31;15.60;99.90
19037;DHT22;9651;49.138;8.900;2023-10-31T09:44:35;15.90;99.90
19037;DHT22;9651;49.138;8.900;2023-10-31T09:48:38;15.80;99.90
19037;DHT22;9651;49.138;8.900;2023-10-31T09:52:41;15.90;99.90
19037;DHT22;9651;49.138;8.900;2023-10-31T09:56:44;15.80;99.90
19037;DHT22;9651;49.138;8.900;2023-10-31T10:00:46;15.60;99.90
19037;DHT22;9651;49.138;8.900;2023-10-31T10:04:48;15.60;99.90
19037;DHT22;9651;49.138;8.900;2023-10-31T10:08:50;15.50;99.90
19037;DHT22;9651;49.138;8.900;2023-10-31T10:12:57;15.80;99.90
19037;DHT22;9651;49.138;8.900;2023-10-31T10:16:59;16.20;99.90
19037;DHT22;9651;49.138;8.900;2023-10-31T10:21:03;16.10;99.90
19037;DHT22;9651;49.138;8.900;2023-10-31T10:25:06;15.90;99.90
19037;DHT22;9651;49.138;8.900;2023-10-31T10:29:10;15.90;99.90
19037;DHT22;9651;49.138;8.900;2023-10-31T10:33:12;16.00;99.90
19037;DHT22;9651;49.138;8.900;2023-10-31T10:37:14;15.90;99.90
19037;DHT22;9651;49.138;8.900;2023-10-31T10:41:17;15.70;99.90
19037;DHT22;9651;49.138;8.900;2023-10-31T10:45:23;15.50;99.90
19037;DHT22;9651;49.138;8.900;2023-10-31T10:49:27;15.30;99.90
19037;DHT22;9651;49.138;8.900;2023-10-31T10:53:35;15.00;99.90
19037;DHT22;9651;49.138;8.900;2023-10-31T10:57:46;14.70;99.90
19037;DHT22;9651;49.138;8.900;2023-10-31T11:01:52;14.60;99.90
19037;DHT22;9651;49.138;8.900;2023-10-31T11:05:54;14.60;99.90
19037;DHT22;9651;49.138;8.900;2023-10-31T11:09:58;14.60;99.90
19037;DHT22;9651;49.138;8.900;2023-10-31T11:14:03;14.60;99.90
19037;DHT22;9651;49.138;8.900;2023-10-31T11:18:07;15.00;99.90
19037;DHT22;9651;49.138;8.900;2023-10-31T11:22:10;15.70;99.90
19037;DHT22;9651;49.138;8.900;2023-10-31T11:26:12;16.20;99.90
19037;DHT22;9651;49.138;8.900;2023-10-31T11:30:21;16.40;99.90
19037;DHT22;9651;49.138;8.900;2023-10-31T11:34:26;16.30;99.90
19037;DHT22;9651;49.138;8.900;2023-10-31T11:38:31;16.50;99.90
19037;DHT22;9651;49.138;8.900;2023-10-31T11:42:36;16.50;99.90
19037;DHT22;9651;49.138;8.900;2023-10-31T11:46:38;16.30;99.90
19037;DHT22;9651;49.138;8.900;2023-10-31T11:50:41;16.20;99.90
19037;DHT22;9651;49.138;8.900;2023-10-31T11:54:43;16.20;99.90
19037;DHT22;9651;49.138;8.900;2023-10-31T11:58:55;16.10;99.90
19037;DHT22;9651;49.138;8.900;2023-10-31T12:02:58;15.70;99.90
19037;DHT22;9651;49.138;8.900;2023-10-31T12:07:01;15.50;99.90
19037;DHT22;9651;49.138;8.900;2023-10-31T12:11:06;15.40;99.90
19037;DHT22;9651;49.138;8.900;2023-10-31T12:15:09;15.30;99.90
19037;DHT22;9651;49.138;8.900;2023-10-31T12:19:11;15.40;99.90
19037;DHT22;9651;49.138;8.900;2023-10-31T12:23:15;15.40;99.90
19037;DHT22;9651;49.138;8.900;2023-10-31T12:27:17;15.40;99.90
19037;DHT22;9651;49.138;8.900;2023-10-31T12:31:18;15.60;99.90
19037;DHT22;9651;49.138;8.900;2023-10-31T12:35:22;16.00;99.90
19037;DHT22;9651;49.138;8.900;2023-10-31T12:39:26;16.00;99.90
19037;DHT22;9651;49.138;8.900;2023-10-31T12:43:29;16.20;99.90
19037;DHT22;9651;49.138;8.900;2023-10-31T12:47:31;16.00;99.90
19037;DHT22;9651;49.138;8.900;2023-10-31T12:51:32;15.90;99.90
19037;DHT22;9651;49.138;8.900;2023-10-31T12:55:40;15.80;99.90
19037;DHT22;9651;49.138;8.900;2023-10-31T12:59:42;15.60;99.90
19037;DHT22;9651;49.138;8.900;2023-10-31T13:03:50;15.30;99.90
19037;DHT22;9651;49.138;8.900;2023-10-31T13:07:53;15.10;99.90
19037;DHT22;9651;49.138;8.900;2023-10-31T13:12:00;14.80;99.90
19037;DHT22;9651;49.138;8.900;2023-10-31T13:16:02;14.70;99.90
19037;DHT22;9651;49.138;8.900;2023-10-31T13:20:05;14.60;99.90
19037;DHT22;9651;49.138;8.900;2023-10-31T13:24:09;14.40;99.90
19037;DHT22;9651;49.138;8.900;2023-10-31T13:28:12;14.20;99.90
19037;DHT22;9651;49.138;8.900;2023-10-31T13:32:14;14.10;99.90
19037;DHT22;9651;49.138;8.900;2023-10-31T13:36:16;14.30;99.90
19037;DHT22;9651;49.138;8.900;2023-10-31T13:40:19;14.70;99.90
19037;DHT22;9651;49.138;8.900;2023-10-31T13:44:23;14.90;99.90
19037;DHT22;9651;49.138;8.900;2023-10-31T13:48:25;14.80;99.90
19037;DHT22;9651;49.138;8.900;2023-10-31T13:52:27;14.80;99.90
19037;DHT22;9651;49.138;8.900;2023-10-31T13:56:29;14.70;99.90
19037;DHT22;9651;49.138;8.900;2023-10-31T14:00:32;14.60;99.90
19037;DHT22;9651;49.138;8.900;2023-10-31T14:04:35;14.40;99.90
19037;DHT22;9651;49.138;8.900;2023-10-31T14:08:37;14.40;99.90
19037;DHT22;9651;49.138;8.900;2023-10-31T14:12:39;14.30;99.90
19037;DHT22;9651;49.138;8.900;2023-10-31T14:16:42;14.30;99.90
19037;DHT22;9651;49.138;8.900;2023-10-31T14:20:45;14.40;99.90
19037;DHT22;9651;49.138;8.900;2023-10-31T14:24:47;14.40;99.90
19037;DHT22;9651;49.138;8.900;2023-10-31T14:28:49;14.40;99.90
19037;DHT22;9651;49.138;8.900;2023-10-31T14:32:53;14.40;99.90
19037;DHT22;9651;49.138;8.900;2023-10-31T14:36:55;14.30;99.90
19037;DHT22;9651;49.138;8.900;2023-10-31T14:40:57;14.20;99.90
19037;DHT22;9651;49.138;8.900;2023-10-31T14:44:59;14.10;99.90
19037;DHT22;9651;49.138;8.900;2023-10-31T14:49:02;14.00;99.90
19037;DHT22;9651;49.138;8.900;2023-10-31T14:53:04;13.90;99.90
19037;DHT22;9651;49.138;8.900;2023-10-31T14:57:06;13.70;99.90
19037;DHT22;9651;49.138;8.900;2023-10-31T15:01:08;13.60;99.90
19037;DHT22;9651;49.138;8.900;2023-10-31T15:05:12;13.60;99.90
19037;DHT22;9651;49.138;8.900;2023-10-31T15:09:14;13.50;99.90
19037;DHT22;9651;49.138;8.900;2023-10-31T15:13:16;13.30;99.90
19037;DHT22;9651;49.138;8.900;2023-10-31T15:17:18;13.20;99.90
19037;DHT22;9651;49.138;8.900;2023-10-31T15:21:21;13.10;99.90
19037;DHT22;9651;49.138;8.900;2023-10-31T15:25:23;12.90;99.90
19037;DHT22;9651;49.138;8.900;2023-10-31T15:29:25;12.80;99.90
19037;DHT22;9651;49.138;8.900;2023-10-31T15:33:26;12.80;99.90
19037;DHT22;9651;49.138;8.900;2023-10-31T15:37:30;12.70;99.90
19037;DHT22;9651;49.138;8.900;2023-10-31T15:41:31;12.70;99.90
19037;DHT22;9651;49.138;8.900;2023-10-31T15:45:33;12.70;99.90
19037;DHT22;9651;49.138;8.900;2023-10-31T15:49:41;12.70;99.90
19037;DHT22;9651;49.138;8.900;2023-10-31T15:53:44;12.70;99.90
19037;DHT22;9651;49.138;8.900;2023-10-31T15:57:46;12.70;99.90
19037;DHT22;9651;49.138;8.900;2023-10-31T16:01:48;12.70;99.90
19037;DHT22;9651;49.138;8.900;2023-10-31T16:05:49;12.60;99.90
19037;DHT22;9651;49.138;8.900;2023-10-31T16:09:53;12.60;99.90
19037;DHT22;9651;49.138;8.900;2023-10-31T16:13:54;12.60;99.90
19037;DHT22;9651;49.138;8.900;2023-10-31T16:17:56;12.60;99.90
19037;DHT22;9651;49.138;8.900;2023-10-31T16:21:58;12.60;99.90
19037;DHT22;9651;49.138;8.900;2023-10-31T16:26:01;12.60;99.90
19037;DHT22;9651;49.138;8.900;2023-10-31T16:30:04;12.60;99.90
19037;DHT22;9651;49.138;8.900;2023-10-31T16:34:08;12.60;99.90
19037;DHT22;9651;49.138;8.900;2023-10-31T16:38:10;12.60;99.90
19037;DHT22;9651;49.138;8.900;2023-10-31T16:42:13;12.50;99.90
19037;DHT22;9651;49.138;8.900;2023-10-31T16:46:15;12.50;99.90
19037;DHT22;9651;49.138;8.900;2023-10-31T16:50:17;12.50;99.90
19037;DHT22;9651;49.138;8.900;2023-10-31T16:54:19;12.50;99.90
19037;DHT22;9651;49.138;8.900;2023-10-31T16:58:22;12.50;99.90
19037;DHT22;9651;49.138;8.900;2023-10-31T17:02:24;12.50;99.90
19037;DHT22;9651;49.138;8.900;2023-10-31T17:06:26;12.50;99.90
19037;DHT22;9651;49.138;8.900;2023-10-31T17:10:28;12.50;99.90
19037;DHT22;9651;49.138;8.900;2023-10-31T17:14:31;12.50;99.90
19037;DHT22;9651;49.138;8.900;2023-10-31T17:18:33;12.50;99.90
19037;DHT22;9651;49.138;8.900;2023-10-31T17:22:36;12.50;99.90
19037;DHT22;9651;49.138;8.900;2023-10-31T17:26:38;12.50;99.90
19037;DHT22;9651;49.138;8.900;2023-10-31T17:30:43;12.40;99.90
19037;DHT22;9651;49.138;8.900;2023-10-31T17:34:45;12.40;99.90
19037;DHT22;9651;49.138;8.900;2023-10-31T17:38:47;12.40;99.90
19037;DHT22;9651;49.138;8.900;2023-10-31T17:42:48;12.40;99.90
19037;DHT22;9651;49.138;8.900;2023-10-31T17:46:52;12.40;99.90
19037;DHT22;9651;49.138;8.900;2023-10-31T17:50:55;12.30;99.90
19037;DHT22;9651;49.138;8.900;2023-10-31T17:54:57;12.30;99.90
19037;DHT22;9651;49.138;8.900;2023-10-31T17:58:59;12.40;99.90
19037;DHT22;9651;49.138;8.900;2023-10-31T18:03:02;12.40;99.90
19037;DHT22;9651;49.138;8.900;2023-10-31T18:07:04;12.40;99.90
19037;DHT22;9651;49.138;8.900;2023-10-31T18:11:06;12.40;99.90
19037;DHT22;9651;49.138;8.900;2023-10-31T18:15:08;12.40;99.90
19037;DHT22;9651;49.138;8.900;2023-10-31T18:19:12;12.30;99.90
19037;DHT22;9651;49.138;8.900;2023-10-31T18:23:13;12.30;99.90
19037;DHT22;9651;49.138;8.900;2023-10-31T18:27:15;12.30;99.90
19037;DHT22;9651;49.138;8.900;2023-10-31T18:31:17;12.30;99.90
19037;DHT22;9651;49.138;8.900;2023-10-31T18:35:21;12.30;99.90
19037;DHT22;9651;49.138;8.900;2023-10-31T18:39:24;12.30;99.90
19037;DHT22;9651;49.138;8.900;2023-10-31T18:43:27;12.30;99.90
19037;DHT22;9651;49.138;8.900;2023-10-31T18:47:29;12.30;99.90
19037;DHT22;9651;49.138;8.900;2023-10-31T18:51:32;12.20;99.90
19037;DHT22;9651;49.138;8.900;2023-10-31T18:55:34;12.20;99.90
19037;DHT22;9651;49.138;8.900;2023-10-31T18:59:36;12.20;99.90
19037;DHT22;9651;49.138;8.900;2023-10-31T19:03:38;12.10;99.90
19037;DHT22;9651;49.138;8.900;2023-10-31T19:07:41;12.10;99.90
19037;DHT22;9651;49.138;8.900;2023-10-31T19:11:43;12.10;99.90
19037;DHT22;9651;49.138;8.900;2023-10-31T19:15:46;12.10;99.90
19037;DHT22;9651;49.138;8.900;2023-10-31T19:19:47;12.10;99.90
19037;DHT22;9651;49.138;8.900;2023-10-31T19:23:51;12.10;99.90
19037;DHT22;9651;49.138;8.900;2023-10-31T19:27:53;12.20;99.90
19037;DHT22;9651;49.138;8.900;2023-10-31T19:31:54;12.10;99.90
19037;DHT22;9651;49.138;8.900;2023-10-31T19:35:56;12.10;99.90
19037;DHT22;9651;49.138;8.900;2023-10-31T19:40:00;12.10;99.90
19037;DHT22;9651;49.138;8.900;2023-10-31T19:44:04;12.10;99.90
19037;DHT22;9651;49.138;8.900;2023-10-31T19:48:06;12.10;99.90
19037;DHT22;9651;49.138;8.900;2023-10-31T19:52:08;12.10;99.90
19037;DHT22;9651;49.138;8.900;2023-10-31T19:56:17;12.10;99.90
19037;DHT22;9651;49.138;8.900;2023-10-31T20:00:19;12.10;99.90
19037;DHT22;9651;49.138;8.900;2023-10-31T20:04:24;12.00;99.90
19037;DHT22;9651;49.138;8.900;2023-10-31T20:08:26;12.00;99.90
19037;DHT22;9651;49.138;8.900;2023-10-31T20:12:30;11.90;99.90
19037;DHT22;9651;49.138;8.900;2023-10-31T20:16:32;12.00;99.90
19037;DHT22;9651;49.138;8.900;2023-10-31T20:20:34;11.90;99.90
19037;DHT22;9651;49.138;8.900;2023-10-31T20:24:36;12.00;99.90
19037;DHT22;9651;49.138;8.900;2023-10-31T20:28:39;12.00;99.90
19037;DHT22;9651;49.138;8.900;2023-10-31T20:32:42;12.00;99.90
19037;DHT22;9651;49.138;8.900;2023-10-31T20:36:43;12.00;99.90
19037;DHT22;9651;49.138;8.900;2023-10-31T20:40:45;12.00;99.90
19037;DHT22;9651;49.138;8.900;2023-10-31T20:44:49;12.00;99.90
19037;DHT22;9651;49.138;8.900;2023-10-31T20:48:50;12.00;99.90
19037;DHT22;9651;49.138;8.900;2023-10-31T20:52:52;11.90;99.90
19037;DHT22;9651;49.138;8.900;2023-10-31T20:56:55;11.90;99.90
19037;DHT22;9651;49.138;8.900;2023-10-31T21:01:00;11.80;99.90
19037;DHT22;9651;49.138;8.900;2023-10-31T21:05:01;11.80;99.90
19037;DHT22;9651;49.138;8.900;2023-10-31T21:09:04;11.80;99.90
19037;DHT22;9651;49.138;8.900;2023-10-31T21:13:06;11.70;99.90
19037;DHT22;9651;49.138;8.900;2023-10-31T21:17:09;11.70;99.90
19037;DHT22;9651;49.138;8.900;2023-10-31T21:21:11;11.60;99.90
19037;DHT22;9651;49.138;8.900;2023-10-31T21:25:13;11.50;99.90
19037;DHT22;9651;49.138;8.900;2023-10-31T21:29:15;11.50;99.90
19037;DHT22;9651;49.138;8.900;2023-10-31T21:33:18;11.40;99.90
19037;DHT22;9651;49.138;8.900;2023-10-31T21:37:20;11.50;99.90
19037;DHT22;9651;49.138;8.900;2023-10-31T21:41:23;11.40;99.90
19037;DHT22;9651;49.138;8.900;2023-10-31T21:45:25;11.30;99.90
19037;DHT22;9651;49.138;8.900;2023-10-31T21:49:28;11.20;99.90
19037;DHT22;9651;49.138;8.900;2023-10-31T21:53:30;11.10;99.90
19037;DHT22;9651;49.138;8.900;2023-10-31T21:57:32;11.00;99.90
19037;DHT22;9651;49.138;8.900;2023-10-31T22:01:34;10.90;99.90
19037;DHT22;9651;49.138;8.900;2023-10-31T22:05:38;10.80;99.90
19037;DHT22;9651;49.138;8.900;2023-10-31T22:09:40;10.80;99.90
19037;DHT22;9651;49.138;8.900;2023-10-31T22:13:42;10.80;99.90
19037;DHT22;9651;49.138;8.900;2023-10-31T22:17:44;10.80;99.90
19037;DHT22;9651;49.138;8.900;2023-10-31T22:21:47;10.70;99.90
19037;DHT22;9651;49.138;8.900;2023-10-31T22:25:50;10.70;99.90
19037;DHT22;9651;49.138;8.900;2023-10-31T22:29:52;10.60;99.90
19037;DHT22;9651;49.138;8.900;2023-10-31T22:33:54;10.60;99.90
19037;DHT22;9651;49.138;8.900;2023-10-31T22:37:58;10.70;99.90
19037;DHT22;9651;49.138;8.900;2023-10-31T22:42:00;10.70;99.90
19037;DHT22;9651;49.138;8.900;2023-10-31T22:46:06;10.70;99.90
19037;DHT22;9651;49.138;8.900;2023-10-31T22:50:09;10.80;99.90
19037;DHT22;9651;49.138;8.900;2023-10-31T22:54:12;10.80;99.90
19037;DHT22;9651;49.138;8.900;2023-10-31T22:58:14;10.80;99.90
19037;DHT22;9651;49.138;8.900;2023-10-31T23:02:17;10.80;99.90
19037;DHT22;9651;49.138;8.900;2023-10-31T23:06:19;10.80;99.90
19037;DHT22;9651;49.138;8.900;2023-10-31T23:10:25;10.90;99.90
19037;DHT22;9651;49.138;8.900;2023-10-31T23:14:27;10.90;99.90
19037;DHT22;9651;49.138;8.900;2023-10-31T23:18:29;10.90;99.90
19037;DHT22;9651;49.138;8.900;2023-10-31T23:22:31;10.90;99.90
19037;DHT22;9651;49.138;8.900;2023-10-31T23:26:34;11.00;99.90
19037;DHT22;9651;49.138;8.900;2023-10-31T23:30:36;11.10;99.90
19037;DHT22;9651;49.138;8.900;2023-10-31T23:34:38;11.10;99.90
19037;DHT22;9651;49.138;8.900;2023-10-31T23:38:39;11.10;99.90
19037;DHT22;9651;49.138;8.900;2023-10-31T23:42:43;11.10;99.90
19037;DHT22;9651;49.138;8.900;2023-10-31T23:46:44;11.10;99.90
19037;DHT22;9651;49.138;8.900;2023-10-31T23:50:46;11.10;99.90
19037;DHT22;9651;49.138;8.900;2023-10-31T23:54:48;11.10;99.90
19037;DHT22;9651;49.138;8.900;2023-10-31T23:58:52;11.00;99.90
